Airport ID:KK70
Update Time (UTC):14/06/2024 08:43
Wind Speed (Knots):2
Wind Direction (Magnetic):220
Temperature (°C):25
Dew Point (°C):25
Humidity (%):100
Altimeter (inHg):29.84
Density Altitude (Feet):1600
Visibility:10+
Clouds (Hundreds of feet):CLR
Present Weather:
METAR:METAR KK70 140840Z AUTO 00000KT 10SM FEW020 FEW025 FEW050 25/25 A2984 RMK AO2

The data displayed is for advisory purposes only and is not to be used for flight planning or operations.